Terminal Aerodrome Forecast
Issued by NWS

Home | Current Version | Previous Version | Text Only | Print | Product List | Glossary Off
Versions: 1 2 3 4 5 6 7 8 9 10 11 12 13 14 15 16 17 18

234
FTUS43 KICT 160520
TAFSLN
TAF
KSLN 160520Z 1606/1706 15010KT P6SM BKN100
     FM160800 16009KT 6SM BR OVC008
     FM161400 17008KT P6SM VCTS BKN015CB OVC060
     FM161700 18010KT P6SM SCT050 SCT150
     FM162200 26009KT P6SM VCTS BKN050CB=

USA.gov is the U.S. government's official web portal to all federal, state and local government web resources and services.